Time;durP1;ratioP1;P1;durP2;ratioP2;P2;SDS_P1;SDS_P2;PMS_P1;PMS_P2;Temp;Humidity;BMP_temperature;BMP_pressure;BME280_temperature;BME280_humidity;BME280_pressure;Samples;Min_cycle;Max_cycle;Signal;HPM_P1;HPM_P2
2021/10/10 05:12:38;;;;;;;;;46.75;39.00;;;;;10.10;74.55;102482.41;5179279;22;45316;-81
2021/10/10 05:15:04;;;;;;;;;51.00;41.00;;;;;10.09;75.04;102488.56;5056169;28;45423;-82
2021/10/10 05:17:30;;;;;;;;;52.75;42.75;;;;;10.10;74.78;102492.91;5059043;28;45487;-81
2021/10/10 05:19:55;;;;;;;;;45.50;37.75;;;;;10.11;74.83;102492.06;5053634;28;45407;-94
2021/10/10 05:22:21;;;;;;;;;50.25;40.25;;;;;10.08;74.53;102489.44;5039855;28;45352;-85
2021/10/10 05:24:46;;;;;;;;;53.25;42.50;;;;;10.05;74.81;102489.41;5057791;28;45415;-84
2021/10/10 05:27:11;;;;;;;;;49.75;40.50;;;;;10.08;74.65;102496.44;5057499;28;45409;-86
2021/10/10 05:29:37;;;;;;;;;45.50;37.00;;;;;10.03;74.67;102485.94;5057119;28;46411;-81
2021/10/10 05:32:02;;;;;;;;;54.75;42.75;;;;;10.01;74.94;102490.31;5056178;28;45383;-85
2021/10/10 05:34:28;;;;;;;;;54.00;43.00;;;;;10.04;74.54;102494.69;5057184;28;45294;-84
2021/10/10 05:36:54;;;;;;;;;51.25;41.00;;;;;10.03;74.85;102491.19;5055638;28;45333;-84
2021/10/10 05:39:20;;;;;;;;;48.25;40.25;;;;;9.97;74.53;102492.09;5056208;28;46315;-84
2021/10/10 05:41:46;;;;;;;;;53.00;40.25;;;;;9.93;74.78;102489.44;5058214;28;45765;-86
2021/10/10 05:44:12;;;;;;;;;49.75;40.00;;;;;9.98;74.79;102506.97;5056859;28;45214;-90
2021/10/10 05:46:37;;;;;;;;;50.00;39.75;;;;;9.97;74.63;102505.22;5048227;28;47419;-92
2021/10/10 05:49:03;;;;;;;;;48.25;38.75;;;;;9.92;74.59;102493.84;5058308;28;45490;-90
2021/10/10 05:51:28;;;;;;;;;47.50;38.75;;;;;9.90;74.53;102493.84;5059638;28;45173;-96
2021/10/10 05:53:54;;;;;;;;;41.75;32.25;;;;;9.96;74.64;102507.84;5042996;28;45252;-87
2021/10/10 05:56:19;;;;;;;;;50.00;38.50;;;;;9.87;74.66;102495.59;5058464;28;45459;-90
2021/10/10 05:58:49;;;;;;;;;51.50;40.00;;;;;9.88;74.49;102502.59;5059128;28;45471;-87
2021/10/10 06:01:15;;;;;;;;;54.00;41.75;;;;;9.87;74.83;102500.88;5059242;28;45243;-86
2021/10/10 06:03:40;;;;;;;;;47.75;39.25;;;;;9.87;74.76;102507.00;5058279;28;45848;-84
2021/10/10 06:06:06;;;;;;;;;51.00;42.00;;;;;9.88;75.13;102513.97;5053824;28;45265;-89
2021/10/10 06:08:31;;;;;;;;;55.25;44.75;;;;;9.81;74.73;102507.00;5061673;28;45378;-91
2021/10/10 06:10:57;;;;;;;;;54.00;40.25;;;;;9.83;74.63;102507.84;5045070;28;45241;-93
2021/10/10 06:13:22;;;;;;;;;52.00;39.75;;;;;9.84;74.95;102509.63;5063382;28;45541;-92
2021/10/10 06:15:49;;;;;;;;;52.50;41.00;;;;;9.83;74.69;102521.00;5045408;28;45812;-92
2021/10/10 06:18:15;;;;;;;;;57.50;44.00;;;;;9.84;74.93;102512.25;5050084;28;46122;-93
2021/10/10 06:20:40;;;;;;;;;47.00;37.75;;;;;9.87;74.69;102514.00;5067088;28;45466;-93
2021/10/10 06:23:05;;;;;;;;;54.50;41.75;;;;;9.83;74.93;102521.00;5062986;28;45832;-93
2021/10/10 06:25:31;;;;;;;;;52.25;41.00;;;;;9.85;74.81;102523.63;5062405;28;45343;-93
2021/10/10 06:27:56;;;;;;;;;50.00;40.75;;;;;9.79;74.79;102516.63;5043395;28;47102;-92
2021/10/10 06:30:22;;;;;;;;;52.75;41.50;;;;;9.77;75.00;102519.25;5044025;28;46231;-93
2021/10/10 06:32:47;;;;;;;;;49.00;41.00;;;;;9.81;74.50;102528.00;5044387;28;45371;-93
2021/10/10 06:35:12;;;;;;;;;51.50;40.50;;;;;9.79;74.79;102522.75;5044323;28;46752;-93
2021/10/10 06:37:38;;;;;;;;;49.50;37.25;;;;;9.79;74.73;102527.13;5036341;28;46001;-93
2021/10/10 06:40:04;;;;;;;;;51.50;42.25;;;;;9.75;74.92;102522.75;5043475;28;45445;-93
2021/10/10 06:42:29;;;;;;;;;51.00;42.00;;;;;9.81;74.88;102535.88;5043797;28;45288;-92
2021/10/10 06:44:55;;;;;;;;;51.75;40.25;;;;;9.81;74.89;102538.50;5051312;28;46241;-93
2021/10/10 06:47:20;;;;;;;;;53.25;43.25;;;;;9.79;75.11;102532.38;5044078;28;47224;-93
2021/10/10 06:49:45;;;;;;;;;53.00;43.75;;;;;9.84;74.81;102538.50;5060773;28;45291;-93
2021/10/10 06:52:13;;;;;;;;;52.50;42.25;;;;;9.81;75.04;102538.50;5043907;28;45355;-94
2021/10/10 06:54:38;;;;;;;;;52.50;43.25;;;;;9.85;75.27;102545.50;5058514;28;47470;-93
2021/10/10 06:57:04;;;;;;;;;49.00;40.50;;;;;9.84;75.03;102540.25;5040168;28;47497;-92
2021/10/10 06:59:30;;;;;;;;;59.00;42.25;;;;;9.89;75.05;102549.88;5045212;28;45865;-93
2021/10/10 07:01:55;;;;;;;;;50.00;40.75;;;;;9.93;75.44;102549.88;5044317;28;45387;-92
2021/10/10 07:04:21;;;;;;;;;53.50;42.75;;;;;9.88;75.32;102549.88;5055240;28;46052;-94
2021/10/10 07:06:46;;;;;;;;;49.25;40.25;;;;;9.95;75.34;102561.28;5043681;28;48124;-92
2021/10/10 07:09:12;;;;;;;;;52.75;41.75;;;;;9.95;75.50;102558.66;5043908;28;45418;-94
2021/10/10 07:11:38;;;;;;;;;53.75;41.75;;;;;9.97;75.81;102555.16;5041950;28;45458;-94
2021/10/10 07:14:04;;;;;;;;;53.75;42.00;;;;;9.96;75.95;102552.50;5055070;28;47294;-89
2021/10/10 07:16:30;;;;;;;;;56.00;43.25;;;;;10.02;76.03;102542.00;5059310;28;45799;-81
2021/10/10 07:18:57;;;;;;;;;54.50;43.00;;;;;10.16;75.92;102548.97;5042251;28;45300;-80
2021/10/10 07:22:27;;;;;;;;;55.50;42.50;;;;;10.21;76.08;102548.09;5041300;28;45324;-80
2021/10/10 07:27:01;;;;;;;;;55.00;43.00;;;;;10.34;75.99;102542.81;5059760;28;45680;-80
2021/10/10 07:29:26;;;;;;;;;56.00;41.75;;;;;10.47;75.93;102559.38;5056105;28;45409;-81
2021/10/10 07:31:52;;;;;;;;;58.25;45.25;;;;;10.49;76.00;102552.41;5057497;28;45334;-80
2021/10/10 07:34:17;;;;;;;;;55.00;45.00;;;;;10.58;75.76;102552.41;5059097;28;45558;-80
2021/10/10 07:36:42;;;;;;;;;58.50;44.25;;;;;10.69;75.81;102560.22;5059727;28;46334;-80
2021/10/10 07:39:08;;;;;;;;;54.25;42.00;;;;;10.78;75.88;102559.31;5041489;28;45835;-81
2021/10/10 07:41:36;;;;;;;;;53.75;41.75;;;;;10.87;75.88;102568.03;5057554;28;45292;-80
2021/10/10 07:44:05;;;;;;;;;58.75;43.25;;;;;10.88;75.38;102551.38;5059730;28;45514;-81
2021/10/10 07:46:37;;;;;;;;;52.25;41.25;;;;;10.96;75.44;102562.75;5059179;28;46517;-84
2021/10/10 07:49:04;;;;;;;;;54.75;43.25;;;;;11.03;74.99;102558.31;5039661;28;45900;-82
2021/10/10 07:51:30;;;;;;;;;55.00;41.75;;;;;11.11;75.33;102545.13;5041548;28;45392;-83
2021/10/10 07:53:56;;;;;;;;;52.25;41.00;;;;;11.21;75.05;102551.22;5059663;28;45216;-83
2021/10/10 07:56:21;;;;;;;;;51.25;41.00;;;;;11.28;75.36;102559.94;5058979;28;45573;-83
2021/10/10 07:58:46;;;;;;;;;50.75;41.00;;;;;11.37;74.89;102562.50;5058748;28;45326;-83
2021/10/10 08:01:12;;;;;;;;;56.25;42.25;;;;;11.41;74.79;102564.22;5053468;28;45215;-83
2021/10/10 08:03:37;;;;;;;;;55.00;42.25;;;;;11.44;74.40;102564.19;5047849;28;45536;-83
2021/10/10 08:06:03;;;;;;;;;51.25;40.00;;;;;11.51;74.16;102564.19;5057164;28;45393;-83
2021/10/10 08:08:28;;;;;;;;;50.25;39.25;;;;;11.52;73.85;102561.50;5053369;28;46069;-83
2021/10/10 08:10:54;;;;;;;;;49.00;39.75;;;;;11.58;73.68;102557.97;5057173;28;45535;-84
2021/10/10 08:13:19;;;;;;;;;48.25;37.00;;;;;11.66;73.31;102571.94;5057432;28;45143;-84
2021/10/10 08:15:45;;;;;;;;;50.25;40.50;;;;;11.68;73.62;102567.53;5038589;28;46129;-83
2021/10/10 08:18:10;;;;;;;;;47.50;39.25;;;;;11.74;73.41;102563.09;5056297;28;45572;-83
2021/10/10 08:20:38;;;;;;;;;51.25;38.75;;;;;11.81;73.41;102567.41;5058716;28;45329;-84
2021/10/10 08:23:03;;;;;;;;;50.75;41.00;;;;;11.89;73.34;102567.34;5055473;28;45515;-84
2021/10/10 08:25:32;;;;;;;;;53.50;41.25;;;;;11.95;73.28;102569.91;5057425;28;46052;-83
2021/10/10 08:27:57;;;;;;;;;53.00;41.00;;;;;12.01;73.17;102559.34;5057475;28;45461;-83
2021/10/10 08:30:23;;;;;;;;;53.50;40.75;;;;;12.12;72.57;102574.19;5049728;28;45637;-83
2021/10/10 08:32:48;;;;;;;;;48.00;40.50;;;;;12.15;72.15;102572.41;5054140;28;45282;-83
2021/10/10 08:35:14;;;;;;;;;50.25;39.75;;;;;12.21;71.77;102563.56;5057801;28;45693;-83
2021/10/10 08:37:42;;;;;;;;;52.50;43.50;;;;;12.29;71.94;102568.75;5056859;28;45346;-83
2021/10/10 08:40:07;;;;;;;;;44.00;36.25;;;;;12.37;71.82;102571.31;5042543;28;45457;-83
2021/10/10 08:42:35;;;;;;;;;50.50;37.25;;;;;12.46;71.55;102580.88;5044268;28;46922;-83
2021/10/10 08:45:10;;;;;;;;;46.25;37.25;;;;;12.46;71.22;102571.22;5057508;28;45592;-83
2021/10/10 08:47:43;;;;;;;;;47.00;38.75;;;;;12.54;71.22;102570.25;5068865;28;45214;-84
2021/10/10 08:50:21;;;;;;;;;64.25;49.25;;;;;12.65;70.93;102568.34;5057167;28;45385;-83
2021/10/10 08:52:50;;;;;;;;;60.75;47.00;;;;;12.68;71.02;102555.13;5055399;28;45611;-83
2021/10/10 08:55:15;;;;;;;;;49.50;40.25;;;;;12.79;70.34;102562.03;5056639;28;46237;-83
2021/10/10 08:57:41;;;;;;;;;48.00;39.50;;;;;12.83;70.16;102553.19;5063625;28;45299;-83
2021/10/10 09:00:12;;;;;;;;;47.75;39.00;;;;;12.93;70.49;102559.19;5055819;28;45358;-83
2021/10/10 09:02:40;;;;;;;;;51.25;37.50;;;;;12.93;69.95;102560.09;5055751;28;45204;-83
2021/10/10 09:05:09;;;;;;;;;46.00;38.50;;;;;12.99;69.50;102559.09;5051674;28;46259;-83
2021/10/10 09:07:36;;;;;;;;;45.50;36.50;;;;;13.03;68.52;102568.75;5057485;28;45335;-83
2021/10/10 09:10:22;;;;;;;;;48.50;39.00;;;;;13.13;69.11;102587.09;5057648;28;45429;-83
2021/10/10 09:12:48;;;;;;;;;46.33;38.67;;;;;13.09;68.85;102570.41;5017002;28;1151983;-83
2021/10/10 09:15:19;;;;;;;;;48.25;38.50;;;;;13.17;68.00;102588.78;5058876;28;46273;-84
2021/10/10 09:17:58;;;;;;;;;47.25;35.00;;;;;13.22;68.08;102584.31;5059488;28;45745;-84
2021/10/10 09:20:37;;;;;;;;;46.75;36.50;;;;;13.30;68.35;102591.25;5052905;28;45422;-84
2021/10/10 09:23:06;;;;;;;;;48.50;39.00;;;;;13.31;67.66;102591.22;5056601;28;45470;-83
2021/10/10 09:25:32;;;;;;;;;43.00;36.00;;;;;13.33;67.90;102584.16;5055749;28;45712;-83
2021/10/10 09:28:04;;;;;;;;;48.75;37.00;;;;;13.36;67.60;102591.13;5058272;28;45763;-83
2021/10/10 09:30:53;;;;;;;;;47.50;38.50;;;;;13.44;67.33;102598.94;5057763;28;45325;-83
2021/10/10 09:33:22;;;;;;;;;48.75;39.00;;;;;13.48;66.93;102601.53;5058474;28;45356;-83
2021/10/10 09:36:00;;;;;;;;;46.00;38.00;;;;;13.53;65.97;102603.25;5059200;28;45346;-84
2021/10/10 09:38:27;;;;;;;;;49.00;38.00;;;;;13.53;65.62;102604.09;5054135;28;46038;-84
2021/10/10 09:41:08;;;;;;;;;47.25;38.00;;;;;13.57;66.68;102597.91;5060727;28;45609;-83
2021/10/10 09:43:34;;;;;;;;;45.75;36.25;;;;;13.59;66.44;102590.84;5062327;28;45516;-83
2021/10/10 09:45:59;;;;;;;;;45.00;37.00;;;;;13.66;66.00;102599.53;5061297;28;45582;-84
2021/10/10 09:48:32;;;;;;;;;47.00;36.75;;;;;13.72;66.74;102585.34;5061511;28;45392;-83
2021/10/10 09:50:58;;;;;;;;;42.50;35.75;;;;;13.77;66.47;102579.97;5045886;28;45445;-83
2021/10/10 09:53:32;;;;;;;;;39.00;32.50;;;;;13.83;65.84;102582.50;5057963;28;45345;-79
2021/10/10 09:56:03;;;;;;;;;39.50;35.00;;;;;13.90;65.34;102591.22;5054784;28;45509;-79
2021/10/10 09:58:36;;;;;;;;;45.50;35.25;;;;;13.94;64.43;102600.84;5062764;28;45722;-80
2021/10/10 10:01:19;;;;;;;;;21.00;18.00;;;;;13.93;64.64;102601.72;5059649;28;45558;-78
2021/10/10 10:04:08;;;;;;;;;42.25;34.25;;;;;13.94;64.13;102588.50;5060308;28;45369;-84
2021/10/10 10:06:38;;;;;;;;;44.75;34.75;;;;;13.93;63.77;102585.88;5061897;28;45399;-84
2021/10/10 10:09:06;;;;;;;;;38.25;32.25;;;;;13.97;63.91;102592.88;5061712;28;45963;-84
2021/10/10 10:11:37;;;;;;;;;37.75;32.25;;;;;14.04;64.13;102593.63;5060357;28;45522;-83
2021/10/10 10:14:11;;;;;;;;;40.75;33.00;;;;;14.07;64.75;102589.13;5064855;28;45338;-83
2021/10/10 10:16:42;;;;;;;;;30.75;29.50;;;;;14.10;64.09;102580.28;5061370;28;46462;-84
2021/10/10 10:19:14;;;;;;;;;40.00;34.75;;;;;14.23;63.87;102593.28;5057910;28;45932;-84
2021/10/10 10:21:40;;;;;;;;;38.25;32.25;;;;;14.26;63.60;102590.56;5058743;28;45593;-83
2021/10/10 10:24:11;;;;;;;;;42.25;34.25;;;;;14.29;62.81;102596.69;5060339;28;45310;-84
2021/10/10 10:26:37;;;;;;;;;38.25;34.25;;;;;14.33;63.16;102596.63;5052008;28;45429;-83
2021/10/10 10:29:05;;;;;;;;;44.50;34.00;;;;;14.36;63.63;102594.78;5055176;28;45737;-83
2021/10/10 10:31:31;;;;;;;;;38.00;34.50;;;;;14.40;63.32;102593.81;5062428;28;45281;-83
2021/10/10 10:34:20;;;;;;;;;33.50;30.50;;;;;14.50;63.15;102606.88;5062196;28;45414;-83
2021/10/10 10:37:02;;;;;;;;;32.75;28.50;;;;;14.47;63.10;102593.72;5062311;28;46111;-84
2021/10/10 10:39:50;;;;;;;;;48.00;36.25;;;;;14.57;63.25;102611.13;5044311;28;45272;-84
2021/10/10 10:42:24;;;;;;;;;38.50;34.50;;;;;14.61;62.89;102610.19;5060323;28;45358;-84
2021/10/10 10:44:51;;;;;;;;;42.75;34.25;;;;;14.61;62.91;102601.38;5062251;28;45212;-83
2021/10/10 10:47:35;;;;;;;;;43.75;36.50;;;;;14.66;62.81;102603.94;5061198;28;45413;-83
2021/10/10 10:50:04;;;;;;;;;37.75;33.75;;;;;14.66;62.38;102601.28;5061736;28;45515;-82
2021/10/10 10:52:40;;;;;;;;;40.25;35.75;;;;;14.70;62.56;102602.94;5060748;28;45447;-83
2021/10/10 10:55:05;;;;;;;;;43.50;35.25;;;;;14.77;62.71;102617.78;5061678;28;45319;-84
2021/10/10 10:57:41;;;;;;;;;36.75;34.00;;;;;14.79;62.73;102610.69;5061361;28;45298;-84
2021/10/10 11:00:12;;;;;;;;;40.50;35.50;;;;;14.83;62.77;102609.75;5044022;28;45823;-84
2021/10/10 11:02:57;;;;;;;;;42.50;35.00;;;;;14.83;62.46;102604.44;5042253;28;45346;-84
2021/10/10 11:05:31;;;;;;;;;42.00;34.75;;;;;14.94;62.29;102608.66;5050643;28;45452;-84
2021/10/10 11:07:56;;;;;;;;;41.50;35.25;;;;;14.93;62.27;102604.28;5061287;28;45378;-84
2021/10/10 11:10:22;;;;;;;;;48.75;36.75;;;;;15.01;62.37;102606.75;5061399;28;45367;-84
2021/10/10 11:13:17;;;;;;;;;30.00;25.75;;;;;15.03;62.58;102599.66;5061078;28;45300;-83
2021/10/10 11:16:29;;;;;;;;;32.75;31.75;;;;;15.13;62.40;102609.16;5061527;28;45330;-84
2021/10/10 11:19:07;;;;;;;;;37.75;33.75;;;;;15.14;62.27;102594.09;5042160;28;48327;-84
2021/10/10 11:21:36;;;;;;;;;35.25;28.75;;;;;15.20;62.09;102596.63;5047159;28;45383;-83
2021/10/10 11:24:03;;;;;;;;;43.25;36.75;;;;;15.24;61.91;102600.06;5061637;28;45222;-86
2021/10/10 11:26:33;;;;;;;;;35.00;33.00;;;;;15.29;61.63;102596.41;5061225;28;45279;-84
2021/10/10 11:28:59;;;;;;;;;38.50;33.25;;;;;15.34;61.49;102600.72;5060988;28;46775;-83
2021/10/10 11:31:31;;;;;;;;;35.00;28.00;;;;;15.35;59.87;102587.47;5061099;28;45380;-85
2021/10/10 11:34:08;;;;;;;;;33.25;29.75;;;;;15.46;61.19;102583.69;5061658;28;45359;-84
2021/10/10 11:36:47;;;;;;;;;36.50;27.00;;;;;15.54;58.83;102587.00;5059226;28;45355;-82
2021/10/10 11:39:18;;;;;;;;;31.75;29.25;;;;;15.59;60.41;102585.13;5048855;28;46391;-81
2021/10/10 11:41:50;;;;;;;;;35.25;29.25;;;;;15.66;60.76;102575.22;5059940;28;45480;-84
2021/10/10 11:44:18;;;;;;;;;26.50;24.00;;;;;15.72;58.52;102577.72;5060555;28;45569;-85
2021/10/10 11:46:59;;;;;;;;;28.50;27.75;;;;;15.75;59.65;102574.97;5059479;28;45403;-83
2021/10/10 11:49:33;;;;;;;;;29.75;25.00;;;;;15.84;59.61;102573.88;5054577;28;45381;-83
2021/10/10 11:52:05;;;;;;;;;25.25;23.75;;;;;15.89;58.56;102576.41;5041778;28;45525;-84
2021/10/10 11:54:39;;;;;;;;;27.25;23.50;;;;;15.85;59.64;102559.69;5052476;28;45512;-83
2021/10/10 11:57:07;;;;;;;;;29.00;22.50;;;;;15.94;59.46;102561.25;5051153;28;45750;-83
2021/10/10 11:59:33;;;;;;;;;25.75;23.75;;;;;16.00;59.01;102562.00;5059738;28;46264;-83
2021/10/10 12:01:59;;;;;;;;;24.00;20.00;;;;;16.04;58.68;102561.00;5060238;28;45284;-83
2021/10/10 12:04:25;;;;;;;;;28.75;27.75;;;;;16.14;58.00;102570.50;5059758;28;45408;-83
2021/10/10 12:06:51;;;;;;;;;24.50;23.25;;;;;16.13;56.81;102557.25;5060538;28;45284;-83
2021/10/10 12:09:17;;;;;;;;;25.75;22.25;;;;;16.16;57.73;102551.88;5059174;28;46830;-83
2021/10/10 12:12:06;;;;;;;;;27.50;21.75;;;;;16.18;58.02;102552.69;5058966;28;45349;-84
2021/10/10 12:14:47;;;;;;;;;27.50;23.00;;;;;16.22;57.42;102550.84;5060621;28;45759;-84
2021/10/10 12:17:29;;;;;;;;;26.25;22.50;;;;;16.23;57.31;102542.81;5060635;28;45529;-84
2021/10/10 12:19:55;;;;;;;;;25.50;23.25;;;;;16.26;57.00;102541.88;5041290;28;46260;-84
2021/10/10 12:22:21;;;;;;;;;33.50;27.00;;;;;16.28;56.76;102553.31;5053519;28;45783;-84
2021/10/10 12:24:47;;;;;;;;;24.25;21.75;;;;;16.29;56.53;102536.50;5060937;28;45397;-84
2021/10/10 12:27:32;;;;;;;;;25.50;22.50;;;;;16.32;56.44;102536.41;5059124;28;45631;-83
2021/10/10 12:29:59;;;;;;;;;21.00;19.25;;;;;16.37;57.59;102542.44;5045175;28;48231;-84
2021/10/10 12:32:32;;;;;;;;;23.75;22.00;;;;;16.36;56.91;102538.06;5059676;28;45425;-84
2021/10/10 12:35:17;;;;;;;;;22.25;19.75;;;;;16.41;57.26;102541.44;5060791;28;45244;-84
2021/10/10 12:37:50;;;;;;;;;26.75;25.25;;;;;16.41;56.05;102535.25;5058552;28;45420;-84
2021/10/10 12:40:28;;;;;;;;;30.25;26.50;;;;;16.48;56.36;102538.59;5060258;28;45431;-84
2021/10/10 12:42:54;;;;;;;;;33.00;27.25;;;;;16.50;56.76;102532.31;5060227;28;45523;-84
2021/10/10 12:48:09;;;;;;;;;27.25;23.75;;;;;16.60;57.02;102529.41;5056656;28;45587;-84
2021/10/10 12:50:57;;;;;;;;;17.25;17.25;;;;;16.68;56.01;102526.50;5060185;28;45427;-84
2021/10/10 12:53:33;;;;;;;;;22.75;21.50;;;;;16.71;56.38;102527.31;5060135;28;45710;-84
2021/10/10 12:56:14;;;;;;;;;24.25;22.00;;;;;16.83;56.24;102539.34;5058942;28;45259;-84
2021/10/10 12:58:50;;;;;;;;;25.00;20.25;;;;;16.86;56.04;102531.28;5059707;28;45501;-84
2021/10/10 13:01:16;;;;;;;;;21.50;19.00;;;;;16.84;55.83;102522.47;5059773;28;45314;-84
2021/10/10 13:03:42;;;;;;;;;26.00;21.00;;;;;16.86;56.16;102527.75;5059877;28;45601;-87
2021/10/10 13:06:07;;;;;;;;;29.25;24.75;;;;;16.84;56.14;102525.13;5040531;28;45472;-86
2021/10/10 13:08:54;;;;;;;;;23.75;20.75;;;;;16.82;56.21;102524.31;5058930;28;45504;-86
2021/10/10 13:11:22;;;;;;;;;28.25;25.00;;;;;16.82;56.08;102515.47;5059511;28;45500;-86
2021/10/10 13:13:49;;;;;;;;;23.25;21.50;;;;;16.80;55.63;102506.69;5041586;28;45851;-87
2021/10/10 13:16:15;;;;;;;;;23.00;22.00;;;;;16.80;55.86;102512.00;5053669;28;45330;-86
2021/10/10 13:18:40;;;;;;;;;26.00;24.75;;;;;16.76;56.08;102511.22;5059761;28;45232;-87
2021/10/10 13:21:06;;;;;;;;;26.75;22.75;;;;;16.76;55.81;102519.19;5053241;28;46347;-87
2021/10/10 13:23:32;;;;;;;;;21.50;20.25;;;;;16.70;55.88;102506.09;5058941;28;45490;-86
2021/10/10 13:25:57;;;;;;;;;19.25;18.50;;;;;16.71;56.07;102505.19;5058564;28;45432;-86
2021/10/10 13:28:23;;;;;;;;;30.00;23.75;;;;;16.70;55.99;102495.47;5058699;28;45553;-86
2021/10/10 13:30:49;;;;;;;;;26.00;23.00;;;;;16.73;56.06;102498.03;5059652;28;45408;-86
2021/10/10 13:33:15;;;;;;;;;24.50;21.75;;;;;16.72;55.68;102498.94;5058939;28;45457;-86
2021/10/10 13:35:41;;;;;;;;;26.25;25.75;;;;;16.76;56.17;102503.25;5058615;28;45327;-86
2021/10/10 13:38:07;;;;;;;;;25.00;25.00;;;;;16.71;56.22;102489.25;5059428;28;45560;-86
2021/10/10 13:40:33;;;;;;;;;23.00;22.00;;;;;16.72;56.39;102490.97;5056605;28;46447;-86
2021/10/10 13:42:58;;;;;;;;;27.50;22.00;;;;;16.72;56.24;102486.53;5055670;28;45473;-86
2021/10/10 13:45:24;;;;;;;;;28.00;25.50;;;;;16.78;56.18;102480.19;5057827;28;45250;-86
2021/10/10 13:47:50;;;;;;;;;24.50;22.75;;;;;16.81;56.16;102485.41;5057843;28;45462;-89
2021/10/10 13:50:15;;;;;;;;;27.25;23.25;;;;;16.82;56.48;102492.44;5057978;28;45494;-86
2021/10/10 13:52:41;;;;;;;;;30.50;26.50;;;;;16.85;56.33;102495.00;5053617;28;45305;-85
2021/10/10 13:55:07;;;;;;;;;29.00;26.25;;;;;16.82;56.36;102481.81;5056999;28;45569;-85
2021/10/10 13:57:36;;;;;;;;;26.25;24.00;;;;;16.85;56.56;102488.81;5062202;28;45434;-86
2021/10/10 14:00:04;;;;;;;;;32.75;28.25;;;;;16.86;56.51;102487.91;5052114;28;46280;-85
2021/10/10 14:02:29;;;;;;;;;28.00;28.00;;;;;16.89;56.76;102498.41;5061164;28;45231;-85
2021/10/10 14:04:55;;;;;;;;;37.00;28.25;;;;;16.92;56.98;102508.06;5057094;28;45267;-86
2021/10/10 14:07:21;;;;;;;;;28.25;26.50;;;;;16.89;56.34;102494.91;5058182;28;45488;-86
2021/10/10 14:09:47;;;;;;;;;30.00;27.50;;;;;16.86;56.51;102493.22;5054968;28;46446;-86
2021/10/10 14:12:12;;;;;;;;;27.75;24.75;;;;;16.90;56.89;102499.28;5057607;28;45371;-85
2021/10/10 14:14:37;;;;;;;;;17.00;16.50;;;;;16.87;56.15;102495.81;5057839;28;46062;-86
2021/10/10 14:17:03;;;;;;;;;32.25;28.25;;;;;16.86;56.75;102494.09;5058994;28;45424;-86
2021/10/10 14:19:29;;;;;;;;;34.25;28.00;;;;;16.85;56.62;102489.69;5056766;28;46365;-85
2021/10/10 14:21:54;;;;;;;;;29.25;26.00;;;;;16.88;56.48;102491.38;5058857;28;45244;-86
2021/10/10 14:24:20;;;;;;;;;26.75;23.75;;;;;16.91;56.46;102501.03;5058608;28;45378;-85
2021/10/10 14:26:45;;;;;;;;;24.25;22.50;;;;;16.89;56.23;102489.59;5055237;28;45373;-85
2021/10/10 14:29:10;;;;;;;;;25.75;24.50;;;;;16.91;56.39;102490.41;5061856;28;45431;-86
2021/10/10 14:31:36;;;;;;;;;30.00;26.50;;;;;16.90;56.80;102481.56;5061310;28;45283;-85
2021/10/10 14:34:01;;;;;;;;;28.00;25.00;;;;;16.93;57.09;102483.25;5062082;28;45385;-85
2021/10/10 14:36:27;;;;;;;;;30.75;27.25;;;;;16.92;56.98;102484.16;5040603;28;45444;-86
2021/10/10 14:38:52;;;;;;;;;35.25;30.00;;;;;16.94;57.17;102485.00;5043411;28;45973;-86
2021/10/10 14:43:48;;;;;;;;;30.50;27.50;;;;;16.88;56.31;102478.09;5061018;28;45231;-87
2021/10/10 14:46:15;;;;;;;;;29.75;24.00;;;;;16.91;56.70;102482.44;5059574;28;45438;-86
2021/10/10 14:48:40;;;;;;;;;35.00;27.50;;;;;16.90;56.53;102476.25;5060179;28;46361;-87
2021/10/10 14:51:05;;;;;;;;;30.00;28.25;;;;;16.90;56.33;102478.91;5060359;28;45426;-87
2021/10/10 14:53:31;;;;;;;;;28.25;25.50;;;;;16.89;56.32;102476.31;5061626;28;45240;-87
2021/10/10 14:55:56;;;;;;;;;26.75;24.25;;;;;16.89;56.39;102482.47;5061273;28;45288;-87
2021/10/10 14:58:25;;;;;;;;;31.00;27.75;;;;;16.91;56.21;102477.13;5061586;28;45292;-87
2021/10/10 15:00:50;;;;;;;;;30.25;30.00;;;;;16.86;56.20;102472.84;5060822;28;45210;-87
2021/10/10 15:03:16;;;;;;;;;29.00;27.00;;;;;16.87;56.36;102479.88;5061333;28;45462;-87
2021/10/10 15:05:42;;;;;;;;;36.75;30.50;;;;;16.93;56.13;102485.91;5061677;28;45362;-85
2021/10/10 15:08:08;;;;;;;;;31.25;27.25;;;;;16.90;56.59;102484.22;5061407;28;45535;-86
2021/10/10 15:10:34;;;;;;;;;31.25;26.50;;;;;16.89;56.86;102481.63;5060545;28;45480;-87
2021/10/10 15:12:59;;;;;;;;;33.75;28.00;;;;;16.86;56.47;102480.81;5060636;28;45323;-87
2021/10/10 15:15:29;;;;;;;;;29.00;26.00;;;;;16.89;56.46;102478.97;5061504;28;45291;-87
2021/10/10 15:17:56;;;;;;;;;37.50;27.50;;;;;16.85;56.61;102476.41;5061403;28;45545;-87
2021/10/10 15:20:22;;;;;;;;;32.75;28.75;;;;;16.87;56.50;102481.66;5060199;28;45373;-87
2021/10/10 15:22:48;;;;;;;;;30.75;27.50;;;;;16.79;56.24;102476.59;5060830;28;45474;-87
2021/10/10 15:25:14;;;;;;;;;33.50;28.50;;;;;16.85;56.87;102489.69;5059240;28;45427;-86
2021/10/10 15:27:40;;;;;;;;;30.75;28.75;;;;;16.81;56.78;102488.06;5061197;28;45355;-87
2021/10/10 15:30:07;;;;;;;;;40.75;33.50;;;;;16.76;56.68;102482.91;5042662;28;45436;-86
2021/10/10 15:32:34;;;;;;;;;32.75;30.50;;;;;16.82;56.84;102491.56;5059920;28;45406;-86
2021/10/10 15:34:59;;;;;;;;;35.00;27.25;;;;;16.76;57.36;102487.34;5058028;28;45999;-86
2021/10/10 15:37:24;;;;;;;;;36.25;30.25;;;;;16.78;56.76;102485.50;5060899;28;46450;-86
2021/10/10 15:39:50;;;;;;;;;42.50;33.00;;;;;16.74;56.78;102494.47;5060264;28;45378;-87
2021/10/10 15:42:15;;;;;;;;;33.00;30.75;;;;;16.75;56.82;102501.50;5061034;28;46422;-86
2021/10/10 15:44:41;;;;;;;;;34.50;28.00;;;;;16.70;56.92;102487.50;5060439;28;45494;-86
2021/10/10 15:47:06;;;;;;;;;35.75;29.75;;;;;16.68;56.78;102495.53;5041408;28;46932;-86
2021/10/10 15:49:31;;;;;;;;;39.50;33.00;;;;;16.65;57.08;102493.84;5060623;28;45353;-86
2021/10/10 15:51:57;;;;;;;;;43.25;33.25;;;;;16.65;57.16;102491.19;5057452;28;45434;-86
2021/10/10 15:54:22;;;;;;;;;43.75;34.50;;;;;16.70;57.11;102506.09;5059906;28;45484;-86
2021/10/10 15:56:49;;;;;;;;;42.75;35.50;;;;;16.62;56.56;102495.69;5059954;28;45382;-87
2021/10/10 15:59:15;;;;;;;;;38.75;35.25;;;;;16.62;56.87;102501.00;5060490;28;45486;-86
2021/10/10 16:01:41;;;;;;;;;36.50;30.50;;;;;16.58;56.85;102496.72;5042942;28;45271;-86
2021/10/10 16:04:06;;;;;;;;;42.00;32.75;;;;;16.54;57.07;102491.50;5059098;28;45446;-86
2021/10/10 16:06:32;;;;;;;;;46.75;35.25;;;;;16.52;56.62;102492.47;5060577;28;45328;-86
2021/10/10 16:08:58;;;;;;;;;42.75;34.25;;;;;16.53;57.14;102496.88;5052600;28;45285;-86
2021/10/10 16:11:23;;;;;;;;;46.00;34.50;;;;;16.54;57.11;102503.94;5058504;28;45248;-85
2021/10/10 16:13:48;;;;;;;;;41.75;34.75;;;;;16.54;57.02;102501.28;5058923;28;46909;-86
2021/10/10 16:16:14;;;;;;;;;43.50;36.00;;;;;16.49;56.98;102492.56;5060483;28;45275;-86
2021/10/10 16:18:39;;;;;;;;;39.00;34.25;;;;;16.48;57.19;102496.13;5060590;28;45183;-86
2021/10/10 16:21:07;;;;;;;;;51.00;38.00;;;;;16.46;57.22;102498.84;5058048;28;45203;-86
2021/10/10 16:23:32;;;;;;;;;45.50;38.00;;;;;16.41;57.68;102493.69;5056933;28;45478;-86
2021/10/10 16:25:58;;;;;;;;;49.00;38.25;;;;;16.44;57.66;102498.03;5060090;28;46715;-85
2021/10/10 16:28:23;;;;;;;;;36.00;28.00;;;;;16.38;57.90;102492.88;5059295;28;45358;-86
2021/10/10 16:30:49;;;;;;;;;51.25;40.50;;;;;16.39;58.16;102502.59;5060501;28;45327;-84
2021/10/10 16:33:14;;;;;;;;;54.25;42.25;;;;;16.34;58.04;102496.56;5058981;28;45479;-85
2021/10/10 16:35:46;;;;;;;;;52.00;40.50;;;;;16.31;58.19;102497.50;5059864;28;45784;-85